الصفحة الرئيسية
METAR-TAF:

METAR-TAF

مطار :

Weipa, أستراليا

دائرة عرض: 12-40-43S, خط طول: 141-55-31E, ارتفاع: 19 متر

مراقبة الطقس الحالي

تاريخ ووقت الإصدار 1ساعة و 13 دقيقة قبل الساعة 07:00UTC
ريح 7 عقدة من الجنوب الشرقي
درجة الحرارة 32°درجة مئوية
الرطوبة 56%
ضغط 1007 hPa
الرؤية 10 كم أو أكثر
غيوم مفككة على ارتفاع 5500 قدم
ملبد بالغيوم على ارتفاع 7200 قدم

METAR: YBWP 170700Z AUTO 13007KT 9999 // BKN055 OVC072 32/22 Q1007

زمن: 18:13 (08:13 UTC)


TAF: مفقودة

أرصاد الطقس والتوقعات من أكثر من 4000 مطار (تقارير الطقس للمطار METAR والتنبؤ بالطقس بالمطارTAF).

المحطات المتاحة هي النقط الصفراء والحمراء على الخريطة.

حرك المؤشر فوق النقطة لمعرفة اسم المحطة.

ثم انقر لمعرفة أرصاد وتوقعات الطقس.

لتغيير الخارطة: اضغط على الأزرار الخضراء مع رمز الصليب الأسود للتكبير. على الزر الأخضر مع شرطة للتصغير، أو على الأسهم الخضراء للخرائط المجاورة.


METAR-TAF: